sensor_id;sensor_type;location;lat;lon;timestamp;P1;durP1;ratioP1;P2;durP2;ratioP2
66371;SDS011;53168;51.146;17.120;2023-05-29T00:00:48;6.42;;;6.32;;
66371;SDS011;53168;51.146;17.120;2023-05-29T00:03:32;5.75;;;5.72;;
66371;SDS011;53168;51.146;17.120;2023-05-29T00:06:04;5.75;;;5.72;;
66371;SDS011;53168;51.146;17.120;2023-05-29T00:08:58;5.81;;;5.78;;
66371;SDS011;53168;51.146;17.120;2023-05-29T00:11:29;5.23;;;5.23;;
66371;SDS011;53168;51.146;17.120;2023-05-29T00:14:00;5.81;;;5.81;;
66371;SDS011;53168;51.146;17.120;2023-05-29T00:16:30;5.70;;;5.69;;
66371;SDS011;53168;51.146;17.120;2023-05-29T00:19:03;5.72;;;5.71;;
66371;SDS011;53168;51.146;17.120;2023-05-29T00:21:32;5.44;;;5.43;;
66371;SDS011;53168;51.146;17.120;2023-05-29T00:24:03;6.12;;;6.12;;
66371;SDS011;53168;51.146;17.120;2023-05-29T00:26:33;5.79;;;5.79;;
66371;SDS011;53168;51.146;17.120;2023-05-29T00:29:05;6.00;;;6.00;;
66371;SDS011;53168;51.146;17.120;2023-05-29T00:31:35;6.22;;;6.20;;
66371;SDS011;53168;51.146;17.120;2023-05-29T00:34:06;6.31;;;6.29;;
66371;SDS011;53168;51.146;17.120;2023-05-29T00:36:36;6.21;;;6.17;;
66371;SDS011;53168;51.146;17.120;2023-05-29T00:39:07;6.37;;;6.36;;
66371;SDS011;53168;51.146;17.120;2023-05-29T00:41:38;6.29;;;6.29;;
66371;SDS011;53168;51.146;17.120;2023-05-29T00:44:08;6.33;;;6.32;;
66371;SDS011;53168;51.146;17.120;2023-05-29T00:46:39;6.28;;;6.24;;
66371;SDS011;53168;51.146;17.120;2023-05-29T00:49:09;5.82;;;5.82;;
66371;SDS011;53168;51.146;17.120;2023-05-29T00:51:39;5.58;;;5.58;;
66371;SDS011;53168;51.146;17.120;2023-05-29T00:54:11;5.45;;;5.45;;
66371;SDS011;53168;51.146;17.120;2023-05-29T00:56:49;5.42;;;5.41;;
66371;SDS011;53168;51.146;17.120;2023-05-29T00:59:19;5.43;;;5.42;;
66371;SDS011;53168;51.146;17.120;2023-05-29T01:01:50;5.42;;;5.41;;
66371;SDS011;53168;51.146;17.120;2023-05-29T01:04:22;5.27;;;5.26;;
66371;SDS011;53168;51.146;17.120;2023-05-29T01:06:54;5.47;;;5.42;;
66371;SDS011;53168;51.146;17.120;2023-05-29T01:09:24;5.38;;;5.32;;
66371;SDS011;53168;51.146;17.120;2023-05-29T01:11:57;5.32;;;5.25;;
66371;SDS011;53168;51.146;17.120;2023-05-29T01:14:38;5.10;;;5.10;;
66371;SDS011;53168;51.146;17.120;2023-05-29T01:17:35;5.12;;;5.06;;
66371;SDS011;53168;51.146;17.120;2023-05-29T01:20:24;4.96;;;4.96;;
66371;SDS011;53168;51.146;17.120;2023-05-29T01:23:07;4.57;;;4.55;;
66371;SDS011;53168;51.146;17.120;2023-05-29T01:26:02;5.11;;;5.11;;
66371;SDS011;53168;51.146;17.120;2023-05-29T01:29:10;5.30;;;5.30;;
66371;SDS011;53168;51.146;17.120;2023-05-29T01:31:47;5.30;;;5.30;;
66371;SDS011;53168;51.146;17.120;2023-05-29T01:34:19;5.19;;;5.19;;
66371;SDS011;53168;51.146;17.120;2023-05-29T01:36:49;5.14;;;5.13;;
66371;SDS011;53168;51.146;17.120;2023-05-29T01:39:20;5.16;;;5.15;;
66371;SDS011;53168;51.146;17.120;2023-05-29T01:41:52;5.31;;;5.28;;
66371;SDS011;53168;51.146;17.120;2023-05-29T01:44:23;5.34;;;5.31;;
66371;SDS011;53168;51.146;17.120;2023-05-29T01:46:56;5.77;;;5.71;;
66371;SDS011;53168;51.146;17.120;2023-05-29T01:49:29;5.46;;;5.45;;
66371;SDS011;53168;51.146;17.120;2023-05-29T01:52:02;5.47;;;5.43;;
66371;SDS011;53168;51.146;17.120;2023-05-29T01:54:33;5.30;;;5.25;;
66371;SDS011;53168;51.146;17.120;2023-05-29T01:59:47;5.92;;;5.89;;
66371;SDS011;53168;51.146;17.120;2023-05-29T02:02:17;5.81;;;5.79;;
66371;SDS011;53168;51.146;17.120;2023-05-29T02:04:50;5.70;;;5.70;;
66371;SDS011;53168;51.146;17.120;2023-05-29T02:07:20;5.73;;;5.71;;
66371;SDS011;53168;51.146;17.120;2023-05-29T02:09:50;5.33;;;5.32;;
66371;SDS011;53168;51.146;17.120;2023-05-29T02:12:20;6.06;;;6.04;;
66371;SDS011;53168;51.146;17.120;2023-05-29T02:14:49;5.70;;;5.69;;
66371;SDS011;53168;51.146;17.120;2023-05-29T02:17:19;5.81;;;5.80;;
66371;SDS011;53168;51.146;17.120;2023-05-29T02:19:48;5.93;;;5.88;;
66371;SDS011;53168;51.146;17.120;2023-05-29T02:22:18;5.91;;;5.87;;
66371;SDS011;53168;51.146;17.120;2023-05-29T02:24:48;6.06;;;5.96;;
66371;SDS011;53168;51.146;17.120;2023-05-29T02:27:18;6.14;;;6.10;;
66371;SDS011;53168;51.146;17.120;2023-05-29T02:29:49;6.26;;;6.22;;
66371;SDS011;53168;51.146;17.120;2023-05-29T02:32:22;5.93;;;5.88;;
66371;SDS011;53168;51.146;17.120;2023-05-29T02:34:55;5.93;;;5.85;;
66371;SDS011;53168;51.146;17.120;2023-05-29T02:37:26;6.18;;;6.11;;
66371;SDS011;53168;51.146;17.120;2023-05-29T02:39:59;6.40;;;6.26;;
66371;SDS011;53168;51.146;17.120;2023-05-29T02:42:38;6.37;;;6.32;;
66371;SDS011;53168;51.146;17.120;2023-05-29T02:45:09;6.27;;;6.27;;
66371;SDS011;53168;51.146;17.120;2023-05-29T02:47:42;5.43;;;5.42;;
66371;SDS011;53168;51.146;17.120;2023-05-29T02:50:14;6.23;;;6.21;;
66371;SDS011;53168;51.146;17.120;2023-05-29T02:52:44;6.16;;;6.08;;
66371;SDS011;53168;51.146;17.120;2023-05-29T02:55:15;7.28;;;7.26;;
66371;SDS011;53168;51.146;17.120;2023-05-29T02:57:45;7.69;;;7.66;;
66371;SDS011;53168;51.146;17.120;2023-05-29T03:00:23;6.36;;;6.32;;
66371;SDS011;53168;51.146;17.120;2023-05-29T03:02:59;6.24;;;6.06;;
66371;SDS011;53168;51.146;17.120;2023-05-29T03:05:32;6.55;;;6.35;;
66371;SDS011;53168;51.146;17.120;2023-05-29T03:08:20;6.47;;;6.34;;
66371;SDS011;53168;51.146;17.120;2023-05-29T03:11:01;6.21;;;6.09;;
66371;SDS011;53168;51.146;17.120;2023-05-29T03:13:32;5.51;;;5.42;;
66371;SDS011;53168;51.146;17.120;2023-05-29T03:16:07;5.77;;;5.71;;
66371;SDS011;53168;51.146;17.120;2023-05-29T03:18:54;5.76;;;5.72;;
66371;SDS011;53168;51.146;17.120;2023-05-29T03:21:33;6.27;;;6.16;;
66371;SDS011;53168;51.146;17.120;2023-05-29T03:24:07;6.09;;;6.00;;
66371;SDS011;53168;51.146;17.120;2023-05-29T03:26:41;6.67;;;6.46;;
66371;SDS011;53168;51.146;17.120;2023-05-29T03:29:14;6.37;;;6.14;;
66371;SDS011;53168;51.146;17.120;2023-05-29T03:31:46;6.68;;;6.52;;
66371;SDS011;53168;51.146;17.120;2023-05-29T03:34:24;6.53;;;6.37;;
66371;SDS011;53168;51.146;17.120;2023-05-29T03:36:58;6.98;;;6.87;;
66371;SDS011;53168;51.146;17.120;2023-05-29T03:39:29;7.19;;;7.09;;
66371;SDS011;53168;51.146;17.120;2023-05-29T03:42:02;7.09;;;6.90;;
66371;SDS011;53168;51.146;17.120;2023-05-29T03:44:34;7.32;;;7.20;;
66371;SDS011;53168;51.146;17.120;2023-05-29T03:47:06;7.00;;;7.00;;
66371;SDS011;53168;51.146;17.120;2023-05-29T03:49:36;7.29;;;7.23;;
66371;SDS011;53168;51.146;17.120;2023-05-29T03:52:06;7.72;;;7.59;;
66371;SDS011;53168;51.146;17.120;2023-05-29T03:54:41;8.00;;;7.76;;
66371;SDS011;53168;51.146;17.120;2023-05-29T03:57:14;7.64;;;7.39;;
66371;SDS011;53168;51.146;17.120;2023-05-29T03:59:46;7.67;;;7.43;;
66371;SDS011;53168;51.146;17.120;2023-05-29T04:02:18;8.24;;;8.00;;
66371;SDS011;53168;51.146;17.120;2023-05-29T04:04:51;8.03;;;7.85;;
66371;SDS011;53168;51.146;17.120;2023-05-29T04:07:25;8.00;;;7.84;;
66371;SDS011;53168;51.146;17.120;2023-05-29T04:12:51;7.09;;;7.04;;
66371;SDS011;53168;51.146;17.120;2023-05-29T04:15:22;7.19;;;7.10;;
66371;SDS011;53168;51.146;17.120;2023-05-29T04:17:54;6.89;;;6.85;;
66371;SDS011;53168;51.146;17.120;2023-05-29T04:20:24;6.76;;;6.72;;
66371;SDS011;53168;51.146;17.120;2023-05-29T04:22:53;6.69;;;6.66;;
66371;SDS011;53168;51.146;17.120;2023-05-29T04:25:24;6.80;;;6.76;;
66371;SDS011;53168;51.146;17.120;2023-05-29T04:31:04;6.63;;;6.58;;
66371;SDS011;53168;51.146;17.120;2023-05-29T04:33:34;6.24;;;6.14;;
66371;SDS011;53168;51.146;17.120;2023-05-29T04:36:06;6.86;;;6.82;;
66371;SDS011;53168;51.146;17.120;2023-05-29T04:38:38;7.01;;;6.99;;
66371;SDS011;53168;51.146;17.120;2023-05-29T04:41:08;7.82;;;7.78;;
66371;SDS011;53168;51.146;17.120;2023-05-29T04:43:38;7.75;;;7.65;;
66371;SDS011;53168;51.146;17.120;2023-05-29T04:46:28;7.29;;;7.27;;
66371;SDS011;53168;51.146;17.120;2023-05-29T04:48:59;7.72;;;7.71;;
66371;SDS011;53168;51.146;17.120;2023-05-29T04:51:34;7.78;;;7.78;;
66371;SDS011;53168;51.146;17.120;2023-05-29T04:54:08;8.00;;;7.98;;
66371;SDS011;53168;51.146;17.120;2023-05-29T04:56:41;7.75;;;7.74;;
66371;SDS011;53168;51.146;17.120;2023-05-29T04:59:13;8.22;;;8.21;;
66371;SDS011;53168;51.146;17.120;2023-05-29T05:01:54;8.09;;;8.09;;
66371;SDS011;53168;51.146;17.120;2023-05-29T05:04:29;8.18;;;8.17;;
66371;SDS011;53168;51.146;17.120;2023-05-29T05:10:04;8.41;;;8.38;;
66371;SDS011;53168;51.146;17.120;2023-05-29T05:12:38;7.04;;;7.01;;
66371;SDS011;53168;51.146;17.120;2023-05-29T05:15:12;7.71;;;7.61;;
66371;SDS011;53168;51.146;17.120;2023-05-29T05:17:52;6.97;;;6.95;;
66371;SDS011;53168;51.146;17.120;2023-05-29T05:20:25;6.77;;;6.77;;
66371;SDS011;53168;51.146;17.120;2023-05-29T05:23:00;6.75;;;6.71;;
66371;SDS011;53168;51.146;17.120;2023-05-29T05:28:27;6.64;;;6.63;;
66371;SDS011;53168;51.146;17.120;2023-05-29T05:30:58;6.90;;;6.89;;
66371;SDS011;53168;51.146;17.120;2023-05-29T05:33:35;6.69;;;6.68;;
66371;SDS011;53168;51.146;17.120;2023-05-29T05:36:07;7.26;;;7.25;;
66371;SDS011;53168;51.146;17.120;2023-05-29T05:39:27;7.54;;;7.54;;
66371;SDS011;53168;51.146;17.120;2023-05-29T05:42:01;6.47;;;6.43;;
66371;SDS011;53168;51.146;17.120;2023-05-29T05:45:16;6.32;;;6.27;;
66371;SDS011;53168;51.146;17.120;2023-05-29T05:47:59;6.00;;;5.97;;
66371;SDS011;53168;51.146;17.120;2023-05-29T05:51:35;5.82;;;5.82;;
66371;SDS011;53168;51.146;17.120;2023-05-29T05:57:41;5.81;;;5.80;;
66371;SDS011;53168;51.146;17.120;2023-05-29T06:00:12;5.65;;;5.62;;
66371;SDS011;53168;51.146;17.120;2023-05-29T06:18:58;4.45;;;4.44;;
66371;SDS011;53168;51.146;17.120;2023-05-29T06:21:38;4.52;;;4.49;;
66371;SDS011;53168;51.146;17.120;2023-05-29T06:24:12;4.83;;;4.83;;
66371;SDS011;53168;51.146;17.120;2023-05-29T06:26:51;4.47;;;4.47;;
66371;SDS011;53168;51.146;17.120;2023-05-29T06:29:25;4.44;;;4.44;;
66371;SDS011;53168;51.146;17.120;2023-05-29T06:31:59;4.14;;;4.14;;
66371;SDS011;53168;51.146;17.120;2023-05-29T06:34:35;4.46;;;4.45;;
66371;SDS011;53168;51.146;17.120;2023-05-29T06:37:09;4.09;;;4.07;;
66371;SDS011;53168;51.146;17.120;2023-05-29T06:42:38;4.13;;;4.12;;
66371;SDS011;53168;51.146;17.120;2023-05-29T06:45:16;3.85;;;3.85;;
66371;SDS011;53168;51.146;17.120;2023-05-29T06:47:51;3.76;;;3.76;;
66371;SDS011;53168;51.146;17.120;2023-05-29T06:50:25;3.85;;;3.84;;
66371;SDS011;53168;51.146;17.120;2023-05-29T06:53:05;3.63;;;3.57;;
66371;SDS011;53168;51.146;17.120;2023-05-29T06:55:51;3.29;;;3.26;;
66371;SDS011;53168;51.146;17.120;2023-05-29T06:58:27;3.04;;;3.01;;
66371;SDS011;53168;51.146;17.120;2023-05-29T07:01:02;3.05;;;3.02;;
66371;SDS011;53168;51.146;17.120;2023-05-29T07:03:46;2.96;;;2.96;;
66371;SDS011;53168;51.146;17.120;2023-05-29T07:06:31;3.22;;;3.22;;
66371;SDS011;53168;51.146;17.120;2023-05-29T07:09:08;3.61;;;3.61;;
66371;SDS011;53168;51.146;17.120;2023-05-29T07:11:55;3.60;;;3.60;;
66371;SDS011;53168;51.146;17.120;2023-05-29T07:14:33;3.45;;;3.44;;
66371;SDS011;53168;51.146;17.120;2023-05-29T07:17:09;3.68;;;3.68;;
66371;SDS011;53168;51.146;17.120;2023-05-29T07:19:48;3.50;;;3.50;;
66371;SDS011;53168;51.146;17.120;2023-05-29T07:23:20;3.26;;;3.26;;
66371;SDS011;53168;51.146;17.120;2023-05-29T07:25:58;3.17;;;3.17;;
66371;SDS011;53168;51.146;17.120;2023-05-29T07:28:34;3.38;;;3.38;;
66371;SDS011;53168;51.146;17.120;2023-05-29T07:31:15;3.14;;;3.14;;
66371;SDS011;53168;51.146;17.120;2023-05-29T07:34:09;2.80;;;2.80;;
66371;SDS011;53168;51.146;17.120;2023-05-29T07:36:59;3.00;;;3.00;;
66371;SDS011;53168;51.146;17.120;2023-05-29T07:39:38;2.66;;;2.66;;
66371;SDS011;53168;51.146;17.120;2023-05-29T07:42:32;2.93;;;2.92;;
66371;SDS011;53168;51.146;17.120;2023-05-29T07:45:08;2.69;;;2.69;;
66371;SDS011;53168;51.146;17.120;2023-05-29T07:47:43;2.83;;;2.83;;
66371;SDS011;53168;51.146;17.120;2023-05-29T07:50:18;4.03;;;4.02;;
66371;SDS011;53168;51.146;17.120;2023-05-29T07:52:52;2.67;;;2.67;;
66371;SDS011;53168;51.146;17.120;2023-05-29T07:55:26;2.49;;;2.49;;
66371;SDS011;53168;51.146;17.120;2023-05-29T07:58:03;2.52;;;2.52;;
66371;SDS011;53168;51.146;17.120;2023-05-29T08:00:43;2.56;;;2.56;;
66371;SDS011;53168;51.146;17.120;2023-05-29T08:03:18;2.58;;;2.58;;
66371;SDS011;53168;51.146;17.120;2023-05-29T08:06:10;2.14;;;2.13;;
66371;SDS011;53168;51.146;17.120;2023-05-29T08:08:46;2.30;;;2.30;;
66371;SDS011;53168;51.146;17.120;2023-05-29T08:11:22;2.15;;;2.14;;
66371;SDS011;53168;51.146;17.120;2023-05-29T08:13:57;2.11;;;2.07;;
66371;SDS011;53168;51.146;17.120;2023-05-29T08:16:32;2.14;;;2.11;;
66371;SDS011;53168;51.146;17.120;2023-05-29T08:19:08;2.04;;;2.03;;
66371;SDS011;53168;51.146;17.120;2023-05-29T08:21:51;2.24;;;2.22;;
66371;SDS011;53168;51.146;17.120;2023-05-29T08:24:30;2.35;;;2.32;;
66371;SDS011;53168;51.146;17.120;2023-05-29T08:27:09;1.98;;;1.96;;
66371;SDS011;53168;51.146;17.120;2023-05-29T08:30:14;1.97;;;1.96;;
66371;SDS011;53168;51.146;17.120;2023-05-29T08:32:58;1.88;;;1.87;;
66371;SDS011;53168;51.146;17.120;2023-05-29T08:39:31;2.21;;;2.18;;
66371;SDS011;53168;51.146;17.120;2023-05-29T08:42:20;2.14;;;2.11;;
66371;SDS011;53168;51.146;17.120;2023-05-29T08:45:03;2.00;;;2.00;;
66371;SDS011;53168;51.146;17.120;2023-05-29T08:47:44;2.26;;;2.24;;
66371;SDS011;53168;51.146;17.120;2023-05-29T08:50:25;2.48;;;2.45;;
66371;SDS011;53168;51.146;17.120;2023-05-29T08:53:00;2.24;;;2.24;;
66371;SDS011;53168;51.146;17.120;2023-05-29T08:55:35;2.46;;;2.46;;
66371;SDS011;53168;51.146;17.120;2023-05-29T08:58:10;2.37;;;2.37;;
66371;SDS011;53168;51.146;17.120;2023-05-29T09:00:45;2.37;;;2.37;;
66371;SDS011;53168;51.146;17.120;2023-05-29T09:03:21;2.45;;;2.45;;
66371;SDS011;53168;51.146;17.120;2023-05-29T09:05:58;2.78;;;2.78;;
66371;SDS011;53168;51.146;17.120;2023-05-29T09:08:35;3.04;;;3.02;;
66371;SDS011;53168;51.146;17.120;2023-05-29T09:11:12;3.05;;;3.01;;
66371;SDS011;53168;51.146;17.120;2023-05-29T09:13:51;2.70;;;2.67;;
66371;SDS011;53168;51.146;17.120;2023-05-29T09:16:30;2.78;;;2.78;;
66371;SDS011;53168;51.146;17.120;2023-05-29T09:19:12;2.65;;;2.60;;
66371;SDS011;53168;51.146;17.120;2023-05-29T09:21:49;2.75;;;2.71;;
66371;SDS011;53168;51.146;17.120;2023-05-29T09:24:32;2.61;;;2.61;;
66371;SDS011;53168;51.146;17.120;2023-05-29T09:27:09;3.03;;;3.02;;
66371;SDS011;53168;51.146;17.120;2023-05-29T09:29:47;3.24;;;3.21;;
66371;SDS011;53168;51.146;17.120;2023-05-29T09:32:32;3.20;;;3.18;;
66371;SDS011;53168;51.146;17.120;2023-05-29T09:35:15;2.88;;;2.87;;
66371;SDS011;53168;51.146;17.120;2023-05-29T09:37:56;2.78;;;2.78;;
66371;SDS011;53168;51.146;17.120;2023-05-29T09:40:31;2.96;;;2.94;;
66371;SDS011;53168;51.146;17.120;2023-05-29T09:43:10;3.00;;;3.00;;
66371;SDS011;53168;51.146;17.120;2023-05-29T09:45:50;2.80;;;2.80;;
66371;SDS011;53168;51.146;17.120;2023-05-29T09:54:41;2.73;;;2.73;;
66371;SDS011;53168;51.146;17.120;2023-05-29T09:57:33;2.37;;;2.37;;
66371;SDS011;53168;51.146;17.120;2023-05-29T10:08:21;2.83;;;2.83;;
66371;SDS011;53168;51.146;17.120;2023-05-29T10:11:36;3.06;;;3.06;;
66371;SDS011;53168;51.146;17.120;2023-05-29T10:14:14;3.24;;;3.24;;
66371;SDS011;53168;51.146;17.120;2023-05-29T10:16:54;3.34;;;3.34;;
66371;SDS011;53168;51.146;17.120;2023-05-29T10:19:43;2.80;;;2.80;;
66371;SDS011;53168;51.146;17.120;2023-05-29T10:22:34;3.15;;;3.15;;
66371;SDS011;53168;51.146;17.120;2023-05-29T10:25:19;3.18;;;3.18;;
66371;SDS011;53168;51.146;17.120;2023-05-29T10:28:10;2.98;;;2.98;;
66371;SDS011;53168;51.146;17.120;2023-05-29T10:30:42;2.89;;;2.89;;
66371;SDS011;53168;51.146;17.120;2023-05-29T10:33:28;2.65;;;2.65;;
66371;SDS011;53168;51.146;17.120;2023-05-29T10:36:30;2.55;;;2.55;;
66371;SDS011;53168;51.146;17.120;2023-05-29T10:39:09;2.85;;;2.85;;
66371;SDS011;53168;51.146;17.120;2023-05-29T10:41:53;2.99;;;2.99;;
66371;SDS011;53168;51.146;17.120;2023-05-29T10:44:39;3.02;;;3.02;;
66371;SDS011;53168;51.146;17.120;2023-05-29T10:47:38;2.73;;;2.72;;
66371;SDS011;53168;51.146;17.120;2023-05-29T10:50:10;2.75;;;2.75;;
66371;SDS011;53168;51.146;17.120;2023-05-29T10:52:43;2.48;;;2.48;;
66371;SDS011;53168;51.146;17.120;2023-05-29T10:55:18;2.83;;;2.83;;
66371;SDS011;53168;51.146;17.120;2023-05-29T10:58:05;3.34;;;3.34;;
66371;SDS011;53168;51.146;17.120;2023-05-29T11:00:39;2.86;;;2.86;;
66371;SDS011;53168;51.146;17.120;2023-05-29T11:03:10;2.47;;;2.47;;
66371;SDS011;53168;51.146;17.120;2023-05-29T11:06:17;2.86;;;2.86;;
66371;SDS011;53168;51.146;17.120;2023-05-29T11:08:54;2.88;;;2.88;;
66371;SDS011;53168;51.146;17.120;2023-05-29T11:11:39;2.77;;;2.77;;
66371;SDS011;53168;51.146;17.120;2023-05-29T11:14:09;2.61;;;2.61;;
66371;SDS011;53168;51.146;17.120;2023-05-29T11:16:39;2.84;;;2.84;;
66371;SDS011;53168;51.146;17.120;2023-05-29T11:19:09;2.85;;;2.85;;
66371;SDS011;53168;51.146;17.120;2023-05-29T11:21:56;3.03;;;3.03;;
66371;SDS011;53168;51.146;17.120;2023-05-29T11:25:02;2.54;;;2.54;;
66371;SDS011;53168;51.146;17.120;2023-05-29T11:27:35;2.70;;;2.70;;
66371;SDS011;53168;51.146;17.120;2023-05-29T11:30:06;2.68;;;2.68;;
66371;SDS011;53168;51.146;17.120;2023-05-29T12:10:36;2.98;;;2.98;;
66371;SDS011;53168;51.146;17.120;2023-05-29T12:13:20;2.48;;;2.48;;
66371;SDS011;53168;51.146;17.120;2023-05-29T12:16:05;2.77;;;2.77;;
66371;SDS011;53168;51.146;17.120;2023-05-29T12:19:02;2.73;;;2.73;;
66371;SDS011;53168;51.146;17.120;2023-05-29T12:21:48;2.66;;;2.66;;
66371;SDS011;53168;51.146;17.120;2023-05-29T12:24:26;3.18;;;3.18;;
66371;SDS011;53168;51.146;17.120;2023-05-29T12:27:26;2.83;;;2.83;;
66371;SDS011;53168;51.146;17.120;2023-05-29T12:30:05;2.84;;;2.84;;
66371;SDS011;53168;51.146;17.120;2023-05-29T12:33:02;3.13;;;3.13;;
66371;SDS011;53168;51.146;17.120;2023-05-29T12:35:36;3.32;;;3.32;;
66371;SDS011;53168;51.146;17.120;2023-05-29T12:38:18;3.09;;;3.09;;
66371;SDS011;53168;51.146;17.120;2023-05-29T12:40:52;2.76;;;2.76;;
66371;SDS011;53168;51.146;17.120;2023-05-29T12:43:27;2.72;;;2.72;;
66371;SDS011;53168;51.146;17.120;2023-05-29T12:46:03;3.07;;;3.07;;
66371;SDS011;53168;51.146;17.120;2023-05-29T12:48:41;2.54;;;2.54;;
66371;SDS011;53168;51.146;17.120;2023-05-29T12:51:21;2.97;;;2.97;;
66371;SDS011;53168;51.146;17.120;2023-05-29T12:57:46;2.75;;;2.75;;
66371;SDS011;53168;51.146;17.120;2023-05-29T13:00:37;2.65;;;2.65;;
66371;SDS011;53168;51.146;17.120;2023-05-29T13:03:15;2.93;;;2.93;;
66371;SDS011;53168;51.146;17.120;2023-05-29T13:05:50;2.85;;;2.85;;
66371;SDS011;53168;51.146;17.120;2023-05-29T13:08:25;2.84;;;2.84;;
66371;SDS011;53168;51.146;17.120;2023-05-29T13:11:00;2.60;;;2.60;;
66371;SDS011;53168;51.146;17.120;2023-05-29T13:16:36;2.87;;;2.87;;
66371;SDS011;53168;51.146;17.120;2023-05-29T13:22:20;2.69;;;2.69;;
66371;SDS011;53168;51.146;17.120;2023-05-29T13:25:11;2.85;;;2.85;;
66371;SDS011;53168;51.146;17.120;2023-05-29T13:31:09;2.90;;;2.90;;
66371;SDS011;53168;51.146;17.120;2023-05-29T13:33:43;2.77;;;2.77;;
66371;SDS011;53168;51.146;17.120;2023-05-29T13:36:45;3.03;;;3.03;;
66371;SDS011;53168;51.146;17.120;2023-05-29T13:39:23;2.96;;;2.96;;
66371;SDS011;53168;51.146;17.120;2023-05-29T14:20:26;2.91;;;2.91;;
66371;SDS011;53168;51.146;17.120;2023-05-29T14:23:42;2.64;;;2.64;;
66371;SDS011;53168;51.146;17.120;2023-05-29T14:26:46;2.96;;;2.96;;
66371;SDS011;53168;51.146;17.120;2023-05-29T14:30:29;2.93;;;2.93;;
66371;SDS011;53168;51.146;17.120;2023-05-29T14:36:30;2.65;;;2.65;;
66371;SDS011;53168;51.146;17.120;2023-05-29T14:39:43;2.72;;;2.72;;
66371;SDS011;53168;51.146;17.120;2023-05-29T14:57:02;3.32;;;3.32;;
66371;SDS011;53168;51.146;17.120;2023-05-29T14:59:33;3.08;;;3.08;;
66371;SDS011;53168;51.146;17.120;2023-05-29T15:02:05;2.74;;;2.74;;
66371;SDS011;53168;51.146;17.120;2023-05-29T15:07:49;2.76;;;2.76;;
66371;SDS011;53168;51.146;17.120;2023-05-29T15:10:34;2.75;;;2.75;;
66371;SDS011;53168;51.146;17.120;2023-05-29T15:13:41;3.02;;;3.02;;
66371;SDS011;53168;51.146;17.120;2023-05-29T15:18:06;3.21;;;3.21;;
66371;SDS011;53168;51.146;17.120;2023-05-29T15:21:43;2.94;;;2.94;;
66371;SDS011;53168;51.146;17.120;2023-05-29T15:28:45;3.72;;;3.72;;
66371;SDS011;53168;51.146;17.120;2023-05-29T15:31:38;3.30;;;3.30;;
66371;SDS011;53168;51.146;17.120;2023-05-29T15:34:33;3.49;;;3.49;;
66371;SDS011;53168;51.146;17.120;2023-05-29T15:37:05;3.61;;;3.61;;
66371;SDS011;53168;51.146;17.120;2023-05-29T15:40:01;3.49;;;3.49;;
66371;SDS011;53168;51.146;17.120;2023-05-29T15:42:45;3.78;;;3.78;;
66371;SDS011;53168;51.146;17.120;2023-05-29T15:45:19;3.28;;;3.28;;
66371;SDS011;53168;51.146;17.120;2023-05-29T15:47:53;3.80;;;3.80;;
66371;SDS011;53168;51.146;17.120;2023-05-29T15:50:27;3.46;;;3.46;;
66371;SDS011;53168;51.146;17.120;2023-05-29T15:53:13;3.67;;;3.67;;
66371;SDS011;53168;51.146;17.120;2023-05-29T15:55:44;3.90;;;3.90;;
66371;SDS011;53168;51.146;17.120;2023-05-29T15:58:13;3.77;;;3.77;;
66371;SDS011;53168;51.146;17.120;2023-05-29T16:00:43;4.29;;;4.29;;
66371;SDS011;53168;51.146;17.120;2023-05-29T16:03:13;3.76;;;3.76;;
66371;SDS011;53168;51.146;17.120;2023-05-29T16:05:43;3.64;;;3.64;;
66371;SDS011;53168;51.146;17.120;2023-05-29T16:08:13;4.29;;;4.29;;
66371;SDS011;53168;51.146;17.120;2023-05-29T16:10:43;3.71;;;3.71;;
66371;SDS011;53168;51.146;17.120;2023-05-29T16:13:13;3.98;;;3.98;;
66371;SDS011;53168;51.146;17.120;2023-05-29T16:15:47;3.63;;;3.63;;
66371;SDS011;53168;51.146;17.120;2023-05-29T16:18:22;3.93;;;3.93;;
66371;SDS011;53168;51.146;17.120;2023-05-29T16:21:09;3.99;;;3.99;;
66371;SDS011;53168;51.146;17.120;2023-05-29T16:23:46;3.86;;;3.86;;
66371;SDS011;53168;51.146;17.120;2023-05-29T16:26:16;3.58;;;3.57;;
66371;SDS011;53168;51.146;17.120;2023-05-29T16:28:49;3.66;;;3.65;;
66371;SDS011;53168;51.146;17.120;2023-05-29T16:31:49;3.95;;;3.95;;
66371;SDS011;53168;51.146;17.120;2023-05-29T16:34:28;4.00;;;4.00;;
66371;SDS011;53168;51.146;17.120;2023-05-29T16:37:13;3.70;;;3.70;;
66371;SDS011;53168;51.146;17.120;2023-05-29T16:39:43;3.83;;;3.82;;
66371;SDS011;53168;51.146;17.120;2023-05-29T16:45:01;4.30;;;4.29;;
66371;SDS011;53168;51.146;17.120;2023-05-29T16:47:48;4.04;;;4.04;;
66371;SDS011;53168;51.146;17.120;2023-05-29T16:50:22;3.91;;;3.91;;
66371;SDS011;53168;51.146;17.120;2023-05-29T16:53:28;4.06;;;4.06;;
66371;SDS011;53168;51.146;17.120;2023-05-29T16:56:33;4.51;;;4.50;;
66371;SDS011;53168;51.146;17.120;2023-05-29T16:59:13;3.91;;;3.91;;
66371;SDS011;53168;51.146;17.120;2023-05-29T17:01:54;3.99;;;3.99;;
66371;SDS011;53168;51.146;17.120;2023-05-29T17:04:53;3.96;;;3.96;;
66371;SDS011;53168;51.146;17.120;2023-05-29T17:07:33;3.75;;;3.75;;
66371;SDS011;53168;51.146;17.120;2023-05-29T17:10:31;3.91;;;3.91;;
66371;SDS011;53168;51.146;17.120;2023-05-29T17:13:55;4.05;;;4.05;;
66371;SDS011;53168;51.146;17.120;2023-05-29T17:16:51;4.02;;;4.02;;
66371;SDS011;53168;51.146;17.120;2023-05-29T17:19:32;4.26;;;4.26;;
66371;SDS011;53168;51.146;17.120;2023-05-29T17:22:06;4.28;;;4.28;;
66371;SDS011;53168;51.146;17.120;2023-05-29T17:24:40;4.18;;;4.17;;
66371;SDS011;53168;51.146;17.120;2023-05-29T17:27:14;4.09;;;4.08;;
66371;SDS011;53168;51.146;17.120;2023-05-29T17:29:52;4.17;;;4.17;;
66371;SDS011;53168;51.146;17.120;2023-05-29T17:32:26;4.25;;;4.25;;
66371;SDS011;53168;51.146;17.120;2023-05-29T17:35:03;4.63;;;4.63;;
66371;SDS011;53168;51.146;17.120;2023-05-29T17:37:39;4.95;;;4.95;;
66371;SDS011;53168;51.146;17.120;2023-05-29T17:40:14;4.20;;;4.20;;
66371;SDS011;53168;51.146;17.120;2023-05-29T17:43:02;4.05;;;4.05;;
66371;SDS011;53168;51.146;17.120;2023-05-29T17:45:37;4.51;;;4.51;;
66371;SDS011;53168;51.146;17.120;2023-05-29T17:48:10;4.64;;;4.62;;
66371;SDS011;53168;51.146;17.120;2023-05-29T17:50:48;4.72;;;4.70;;
66371;SDS011;53168;51.146;17.120;2023-05-29T17:53:22;5.15;;;5.12;;
66371;SDS011;53168;51.146;17.120;2023-05-29T17:55:56;4.47;;;4.45;;
66371;SDS011;53168;51.146;17.120;2023-05-29T17:58:31;4.56;;;4.56;;
66371;SDS011;53168;51.146;17.120;2023-05-29T18:01:07;4.28;;;4.27;;
66371;SDS011;53168;51.146;17.120;2023-05-29T18:03:46;4.84;;;4.83;;
66371;SDS011;53168;51.146;17.120;2023-05-29T18:06:21;4.99;;;4.99;;
66371;SDS011;53168;51.146;17.120;2023-05-29T18:08:55;4.56;;;4.56;;
66371;SDS011;53168;51.146;17.120;2023-05-29T18:11:31;5.06;;;5.06;;
66371;SDS011;53168;51.146;17.120;2023-05-29T18:14:05;4.62;;;4.62;;
66371;SDS011;53168;51.146;17.120;2023-05-29T18:16:41;4.84;;;4.82;;
66371;SDS011;53168;51.146;17.120;2023-05-29T18:19:29;4.83;;;4.82;;
66371;SDS011;53168;51.146;17.120;2023-05-29T18:22:36;4.70;;;4.68;;
66371;SDS011;53168;51.146;17.120;2023-05-29T18:25:12;5.09;;;5.08;;
66371;SDS011;53168;51.146;17.120;2023-05-29T18:27:48;4.91;;;4.91;;
66371;SDS011;53168;51.146;17.120;2023-05-29T18:30:24;5.68;;;5.62;;
66371;SDS011;53168;51.146;17.120;2023-05-29T18:32:59;5.20;;;5.18;;
66371;SDS011;53168;51.146;17.120;2023-05-29T18:35:36;4.85;;;4.79;;
66371;SDS011;53168;51.146;17.120;2023-05-29T18:38:12;5.54;;;5.46;;